Station: Keith

  Atmospheric Gas Attenuation - ITU Rec 676-11   --------------- db/100km ---------------
Date Time Temp RH % AH g/m3 Dew Point Wind Direction Speed kph Gust kph Barometer mB Rainfall Since 9am 24GHz 47GHz 76GHz 122GHz 134GHz 241GHz
27 09:00 11.6 76 7.9 7.6 4 1032.1 0.4 18.2 26.1 38.9 101.7 93.3 320.1
26 09:00 10 75 7.05 5.9 13 1021 4 16.4 24.8 35.7 93.4 83.0 283.8
25 09:00 8.6 75 6.45 4.5 9 1008.1 12 15.2 23.7 33.4 87.4 75.6 258.1
24 09:00 11.6 84 8.73 9 15 1013.1 5 20.0 26.8 41.5 108.8 103.0 354.3
23 09:00 12 85 9.06 9.6 11 1013.1 3 20.7 27.2 42.6 112.0 107.0 368.3
22 09:00 13 79 8.96 9.5 15 1008.6 2 20.4 26.5 41.5 108.9 103.9 357.6
21 09:00 14 63 7.6 7.1 17 1005.7 8 17.5 24.0 35.5 93.0 84.7 290.5
20 09:00 18 74 11.37 13.4 15 1006.6 1 25.3 28.9 48.5 127.7 128.8 445.5
19 09:00 22.8 53 10.77 12.7 17 1012.6 0 23.7 26.7 43.6 114.6 114.1 394.4
18 09:00 14.2 75 9.16 9.9 15 1024 0.8 20.8 27.1 42.4 111.1 106.3 365.9
17 09:00 13.4 84 9.77 10.7 15 1022.8 0.4 22.1 28.3 45.3 119.0 115.7 398.8
16 09:00 17.5 47 7.01 6.3 15 1018.9 0 16.0 22.7 32.3 84.5 74.8 256.3
15 09:00 10.2 84 8 7.7 0 1031.9 0.1 18.5 26.7 40.0 104.6 96.4 330.6
14 09:00 13 82 9.3 10.1 9 1031 0.6 21.1 28.0 43.9 115.2 110.5 380.4
13 09:00 11.5 91 9.4 10.1 13 1026.2 11 21.4 28.4 45.0 118.0 113.6 391.3
12 09:00 14 80 9.65 10.6 7 1022.4 0.4 21.8 27.9 44.4 116.7 113.1 389.8
11 09:00 18.2 51 7.93 8 17 1024.6 0 18.0 24.0 35.6 93.2 85.6 294.1
10 09:00 10.2 71 6.76 5.3 9 1025.7 0 15.8 24.4 34.7 90.6 79.3 270.9
09 09:00 12.2 17 1031.2 0
07 09:00 19.5 31 5.2 2 15 1019.7 0 12.2 19.7 25.5 66.1 52.8 179.1
06 09:00 14.8 61 7.73 7.5 11 1022.5 0 17.7 24.6 36.3 95.0 86.7 297.4
05 09:00 12 97 10.34 11.6 0 1021.2 3 23.4 29.7 48.5 127.6 125.8 434.1
04 09:00 11.4 80 8.21 8.1 15 1018.7 0.4 18.9 26.2 39.7 104.0 96.7 332.0
03 09:00 14.2 65 7.94 7.7 30 1011.5 0 18.2 24.7 36.9 96.8 89.2 306.3
02 09:00 18 36 5.53 2.9 7 1007.5 0 12.9 20.1 26.6 69.3 56.8 193.1
01 09:00 10.6 60 5.86 3.2 15 1021.1 0 13.9 22.7 30.9 80.4 67.1 228.4
31 09:00 9.5 78 7.1 5.8 0 1028.7 1 16.6 25.3 36.5 95.3 84.7 289.8
29 09:00 15.2 51 6.62 5.2 13 1025.7 0 15.3 22.9 32.1 83.7 72.7 248.5
28 09:00 11 93 9.31 10 9 1030.1 0 21.2 28.6 45.1 118.2 113.5 390.6
27 09:00 13.8 64 7.63 7.2 17 1024.7 0 17.5 24.8 36.5 95.4 86.7 297.2
26 09:00 10 67 6.3 4.3 9 1030.8 0.1 14.8 23.9 33.2 86.4 73.9 251.7
25 09:00 7.4 91 7.24 6.1 0 1033 0 17.0 26.3 38.2 99.9 89.3 305.5
24 09:00 8 91 7.53 6.7 4 1025.5 0.2 17.6 26.3 38.8 101.6 92.1 315.3
23 09:00 9.2 72 6.43 4.4 11 1019.8 5 15.1 23.9 33.6 87.6 75.6 257.8
22 09:00 10.6 69 6.74 5.1 15 1012.3 6 15.8 23.8 33.9 88.6 77.7 265.6
21 09:00 9 77 6.79 5.2 11 1006.6 10 15.9 24.1 34.5 90.4 79.6 272.0
20 09:00 10.5 84 8.15 8 11 1007.4 4 18.8 25.9 39.4 103.3 96.1 329.9
19 09:00 11.3 82 8.37 8.3 15 995 7 19.2 25.6 39.3 103.4 97.0 333.5
18 09:00 12.5 76 8.36 8.5 20 1001.4 1 19.2 25.4 38.9 102.3 95.9 329.7
17 09:00 10.5 81 7.86 7.4 2 1011.4 0 18.2 25.6 38.3 100.6 92.5 317.3
16 09:00 10.4 96 9.25 9.8 2 1018.8 0.7 21.2 28.2 44.6 117.1 112.5 387.1
15 09:00 9.7 96 8.85 9.1 4 1015.3 0 20.3 27.6 43.1 113.2 107.5 369.7
14 09:00 10.8 90 8.9 9.2 4 1011.7 0.3 20.4 27.2 42.5 111.7 106.3 365.8
13 09:00 12.3 87 9.45 10.2 4 1010.2 5 21.5 27.6 44.0 115.6 111.7 384.8
12 09:00 11.2 85 8.62 8.8 4 1007.1 3 19.8 26.5 40.9 107.5 101.5 349.1
11 09:00 11.8 72 7.58 7 11 1013.5 0 17.5 24.8 36.7 96.1 87.4 299.7
10 09:00 7.5 85 6.81 5.2 9 1022.6 0 16.0 25.1 35.9 94.0 82.5 282.0
09 09:00 1013.1
08 09:00 9.8 92 8.54 8.6 17 1013.2 3 19.7 27.0 41.6 109.2 102.8 353.4
07 09:00 6.3 85 6.3 4 4 1016.3 0 15.0 24.4 34.1 89.2 76.5 260.6
06 09:00 3.8 95 5.96 3.1 9 1023.2 0 14.3 24.8 34.1 88.9 74.7 254.1
05 09:00 2.5 91 5.24 1.2 0 1022.9 0.4 12.8 23.9 31.6 82.4 66.1 223.5
04 09:00 5.8 80 5.73 2.6 9 1020.4 1 13.8 23.7 32.2 84.0 69.6 236.4
03 09:00 6.6 94 7.1 5.7 0 1020.1 0 16.7 25.8 37.5 98.0 87.3 298.6
02 09:00 7.6 83 6.69 4.9 0 1023.9 0.1 15.8 24.9 35.5 92.7 80.9 276.2
31 09:00 8.8 75 6.53 4.7 11 1028.7 0 15.4 24.5 34.5 90.0 77.9 265.7
30 09:00 8.4 94 7.98 7.5 0 1030.1 0.8 18.5 27.1 40.7 106.7 98.2 336.9
29 09:00 4.5 95 6.25 3.8 0 1022.4 0.2 14.9 25.0 35.0 91.3 78.0 265.6
28 09:00 4 75 4.77 0 7 1023 0.2 11.8 22.8 29.2 75.8 58.6 197.6
27 09:00 11 93 9.31 10 11 1023.2 0 21.2 28.3 44.7 117.4 112.8 388.4
26 09:00 5 93 6.32 4 4 1024.2 0 15.1 25.1 35.1 91.7 78.6 267.7
24 09:00 7.4 72 5.73 2.8 11 1023.5 0 13.7 23.4 31.7 82.6 68.4 232.3
22 09:00 10.2 82 7.81 7.2 0 1031.9 0 18.1 26.4 39.2 102.5 93.8 321.5
21 09:00 7 97 7.52 6.6 0 1033.4 0.2 17.6 26.9 39.6 103.6 93.7 321.0
20 09:00 9 91 8.03 7.7 9 1026.8 1 18.6 26.9 40.5 106.1 97.9 335.8
19 09:00 10.9 81 8.06 7.8 15 1013.1 0 18.6 25.9 39.0 102.4 94.8 325.5
18 09:00 9.6 62 5.68 2.8 9 1015.7 0 13.5 22.5 30.3 79.1 65.4 222.2
17 09:00 8 77 6.37 4.3 9 1023.5 0 15.1 24.3 34.0 88.7 76.2 259.8
16 09:00 7 94 7.29 6.1 0 1025.4 0 17.1 26.2 38.3 100.2 89.9 307.6
14 09:00 4.5 95 6.25 3.8 0 1029.5 0.1 14.9 25.3 35.3 92.0 78.5 267.2
13 09:00 4.8 95 6.38 4.1 0 1028.4 0.2 15.2 25.4 35.6 93.0 79.9 272.2
12 09:00 9.4 97 8.78 9 9 1020.4 7 20.2 27.8 43.2 113.4 107.4 369.1
11 09:00 10 92 8.65 8.8 11 1017.3 18 19.9 27.3 42.2 110.7 104.4 359.0
10 09:00 8.8 75 6.53 4.7 9 1021 0 15.4 24.2 34.2 89.3 77.4 264.0
09 09:00 5.6 94 6.65 4.7 15 1027.2 0 15.8 25.6 36.3 94.9 82.7 282.2
08 09:00 7.5 93 7.45 6.4 7 1029.4 0 17.4 26.5 38.9 101.8 91.8 314.4
07 09:00 10.5 83 8.05 7.8 0 1033.7 0 18.6 26.7 40.1 105.0 96.8 332.2
06 09:00 10 81 7.61 7 0 1034.4 0 17.6 26.2 38.6 100.8 91.5 313.4
05 09:00 10.8 79 7.81 7.4 11 1031.4 1 18.0 26.2 38.9 101.7 93.0 318.9
04 09:00 9.8 96 8.91 9.2 11 1029.4 2 20.4 28.3 44.0 115.3 109.4 376.4
03 09:00 9.8 89 8.26 8.1 19 1020.5 3 19.0 26.8 40.8 106.9 99.5 341.8
02 09:00 8.4 89 7.55 6.7 7 1016.1 6 17.6 25.8 38.3 100.3 91.1 312.2
01 09:00 10.4 55 5.3 1.9 13 1012.1 0 12.7 21.6 28.5 74.2 59.9 203.0
30 09:00 7.8 72 5.88 3.1 19 1015.7 0 14.0 23.3 31.8 83.0 69.5 236.3
29 09:00 5.8 82 5.88 2.9 7 1027.2 0 14.1 24.2 33.1 86.2 72.0 244.8
28 09:00 9 70 6.17 3.9 9 1029.8 0 14.6 23.9 33.0 86.1 73.0 248.8
27 09:00 9.5 80 7.28 6.2 9 1029.1 3 17.0 25.6 37.2 97.3 87.2 298.4
26 09:00 9 97 8.55 8.6 0 1028.3 0.4 19.7 27.9 42.8 112.2 105.3 361.9
25 09:00 9 79 6.97 5.5 15 1020.9 6 16.3 24.9 35.8 93.7 83.0 283.7
24 09:00 10.2 95 9.04 9.4 4 1021.6 0.6 20.7 28.1 43.9 115.3 110.0 378.5
23 09:00 11.5 96 9.92 10.9 11 1019.6 3 22.5 29.1 46.9 123.3 120.4 415.1
22 09:00 10.6 82 8.01 7.7 11 1015.3 2 18.5 25.9 39.1 102.5 94.7 325.0
21 09:00 9 93 8.2 8 9 1012.1 2 19.0 26.6 40.5 106.4 99.0 340.1
20 09:00 10.5 86 8.34 8.2 13 1016.3 0.4 19.2 26.6 40.5 106.4 99.4 341.4
19 09:00 11.8 62 6.53 4.8 17 1019.9 0 15.3 23.4 32.9 85.8 74.4 254.0
18 09:00 10 89 8.36 8.3 15 1031.7 0.1 19.2 27.3 41.6 108.9 101.6 348.9
17 09:00 11.2 97 9.83 10.8 9 1034.1 1 22.3 29.6 47.4 124.4 121.0 416.9
16 09:00 13.5 88 10.29 11.6 15 1024.2 3 23.2 29.2 47.5 124.9 123.0 424.2
15 11:18 14.8 76 9.63 10.6 15 1020.9 21.7 27.6 43.8 115.1 111.5 384.4
14 09:00 10 84 7.9 7.5 19 1016.4 8 18.3 26.0 39.0 102.2 94.0 322.5

Last Refresh: 27-Sep-2020 14:15:13

Most of the information presented on this site is sourced from the Bureau of Meteorology.  Copyright in all material sourced from the Bureau of Meteorology resides with the Commonwealth of Australia.